Redwood Falls Municipal Airport
KRWF : now visible

Airfield :











YOU CAN JOIN US ON...

 
LOGIN :

Register | Disclaimer

   EN    FR    IT 

 









Legend :    VFR   Marginal VFR   IFR   Intensive IFR   Very Intensive IFR
Visi :
Ceiling :
>= 8 km
>= 3000ft
5 to 8 km
1000 to 3000 ft
1500m to 5 km
500 to 1000 ft
800 to 1500m
200 to 500 ft
< 800m
< 200 ft
Symbols :   Thunderstorms  Fog  Heavy snow  Heavy precipitations  Wind > 20 kt






- Airport Elevation : 1024 ft


KRWF - Redwood Falls Municipal

CURRENT METAR :
  • 280253Z AUTO 31007KT 10SM CLR 14/10 A2996 RMK AO2 SLP144 T01440100 53029

EXPIRED METARs :
  • 280153Z AUTO 31008G19KT 10SM FEW032 16/10 A2993 RMK AO2 SLP134 T01560100
  • 280053Z AUTO 30012G26KT 10SM BKN060 17/11 A2989 RMK AO2 PK WND 30026/0020 SLP122 T01720106
  • 272353Z AUTO 31015G25KT 10SM FEW038 SCT055 18/12 A2987 RMK AO2 SLP114 60004 T01780122 10217 20144 52018
  • 272253Z AUTO 31009KT 10SM FEW047 FEW070 SCT080 17/13 A2986 RMK AO2 PK WND 29032/2217 LTG DSNT NE RAB03E47 SLP111 P0004 T01720128

TAF KRWF
Valid from the 28 at 00:00 until the 29 at 00:00 UTC


272320Z 2800/2824 32010KT P6SM SCT050
FM280900 29005KT P6SM BKN120
FM281400 33013G21KT P6SM BKN070
FM281800 33013G22KT P6SM SCT070
KZMP FIR / North America



MET'MAP, your aeronautical weather chart ! - Copyright ORBIFLY December 2007 - Disclaimer

ORBIFLY MET'MAP TEAM :

Programming & Development : Alexandra Zaïnal
Original concept : Baudouin d'Aumeries
Technical & hardware support : Manuel Goepfert
Assistance : Marc-Olivier Méhu




SOURCES & CREDITS :

   NOAA       Earth
Advisory